JAL378 RJFR-RJTT
Flight info
| Callsign | JAL378 |
|---|---|
| Flight time | 1h 13m |
| Altitude | 37000 |
| Route | KOHEI1 FIATO Y61 KTE Y33 SHOOT Y71 XAC XAC1B |
| Aircraft | B738/M-V/N |
Departure
| Time | 2026-05-07 15:18 |
|---|---|
| Airport | Kitakyushu Airport (RJFR) |
Arrival
| Time | 2026-05-07 16:31 |
|---|---|
| Airport | Tokyo Haneda International Airport (RJTT) |
| Time | Latitude | Longitude | Altitude | Speed | Heading |
|---|---|---|---|---|---|
| 2026-05-07 14:42 | 33.83972 | 131.03265 | 29 ft | 0 kts | 260° |
| 2026-05-07 15:06 | 33.83973 | 131.03270 | 29 ft | 2 kts | 260° |
| 2026-05-07 15:06 | 33.83976 | 131.03293 | 29 ft | 3 kts | 260° |
| 2026-05-07 15:06 | 33.83980 | 131.03317 | 29 ft | 3 kts | 260° |
| 2026-05-07 15:07 | 33.83983 | 131.03341 | 29 ft | 3 kts | 260° |
| 2026-05-07 15:07 | 33.83987 | 131.03365 | 29 ft | 3 kts | 260° |
| 2026-05-07 15:07 | 33.83989 | 131.03385 | 29 ft | 3 kts | 267° |
| 2026-05-07 15:07 | 33.83988 | 131.03407 | 29 ft | 3 kts | 298° |
| 2026-05-07 15:08 | 33.83976 | 131.03422 | 29 ft | 3 kts | 338° |
| 2026-05-07 15:08 | 33.83957 | 131.03428 | 29 ft | 2 kts | 351° |
| 2026-05-07 15:08 | 33.83948 | 131.03430 | 29 ft | 1 kts | 351° |
| 2026-05-07 15:08 | 33.83947 | 131.03430 | 29 ft | 0 kts | 351° |
| 2026-05-07 15:13 | 33.83956 | 131.03429 | 29 ft | 3 kts | 353° |
| 2026-05-07 15:13 | 33.83997 | 131.03421 | 29 ft | 10 kts | 351° |
| 2026-05-07 15:13 | 33.84094 | 131.03401 | 29 ft | 18 kts | 351° |
| 2026-05-07 15:13 | 33.84237 | 131.03372 | 29 ft | 23 kts | 350° |
| 2026-05-07 15:14 | 33.84396 | 131.03339 | 29 ft | 23 kts | 350° |
| 2026-05-07 15:14 | 33.84550 | 131.03307 | 29 ft | 22 kts | 350° |
| 2026-05-07 15:14 | 33.84701 | 131.03276 | 29 ft | 22 kts | 350° |
| 2026-05-07 15:14 | 33.84846 | 131.03246 | 29 ft | 21 kts | 350° |
| 2026-05-07 15:15 | 33.84988 | 131.03217 | 29 ft | 20 kts | 350° |
| 2026-05-07 15:15 | 33.85123 | 131.03189 | 29 ft | 20 kts | 350° |
| 2026-05-07 15:15 | 33.85256 | 131.03162 | 29 ft | 19 kts | 350° |
| 2026-05-07 15:15 | 33.85385 | 131.03136 | 29 ft | 18 kts | 350° |
| 2026-05-07 15:16 | 33.85509 | 131.03111 | 29 ft | 18 kts | 350° |
| 2026-05-07 15:16 | 33.85585 | 131.03097 | 29 ft | 8 kts | 358° |
| 2026-05-07 15:16 | 33.85632 | 131.03121 | 29 ft | 8 kts | 47° |
| 2026-05-07 15:16 | 33.85651 | 131.03183 | 29 ft | 9 kts | 78° |
| 2026-05-07 15:17 | 33.85656 | 131.03250 | 29 ft | 7 kts | 107° |
| 2026-05-07 15:17 | 33.85617 | 131.03290 | 29 ft | 10 kts | 159° |
| 2026-05-07 15:17 | 33.85331 | 131.03350 | 29 ft | 79 kts | 170° |
| 2026-05-07 15:17 | 33.84558 | 131.03509 | 29 ft | 143 kts | 171° |
| 2026-05-07 15:18 | 33.83435 | 131.03739 | 313 ft | 171 kts | 170° |
| 2026-05-07 15:18 | 33.82289 | 131.04057 | 1172 ft | 171 kts | 155° |
| 2026-05-07 15:18 | 33.81493 | 131.05161 | 1744 ft | 191 kts | 108° |
| 2026-05-07 15:18 | 33.81547 | 131.06805 | 2391 ft | 206 kts | 75° |
| 2026-05-07 15:19 | 33.81948 | 131.08496 | 3162 ft | 214 kts | 76° |
| 2026-05-07 15:19 | 33.82325 | 131.10283 | 3545 ft | 238 kts | 81° |
| 2026-05-07 15:19 | 33.82620 | 131.12359 | 3803 ft | 253 kts | 84° |
| 2026-05-07 15:19 | 33.82832 | 131.14482 | 4349 ft | 263 kts | 86° |
| 2026-05-07 15:20 | 33.83018 | 131.16733 | 4885 ft | 278 kts | 86° |
| 2026-05-07 15:20 | 33.82964 | 131.19093 | 5386 ft | 287 kts | 103° |
| 2026-05-07 15:20 | 33.82508 | 131.21443 | 5901 ft | 289 kts | 108° |
| 2026-05-07 15:20 | 33.81958 | 131.23772 | 6481 ft | 291 kts | 109° |
| 2026-05-07 15:21 | 33.81395 | 131.26133 | 7052 ft | 296 kts | 108° |
| 2026-05-07 15:21 | 33.80840 | 131.28525 | 7632 ft | 300 kts | 108° |
| 2026-05-07 15:21 | 33.80287 | 131.30975 | 8223 ft | 304 kts | 107° |
| 2026-05-07 15:21 | 33.79750 | 131.33413 | 8817 ft | 308 kts | 107° |
| 2026-05-07 15:22 | 33.79205 | 131.35920 | 9430 ft | 313 kts | 107° |
| 2026-05-07 15:22 | 33.78655 | 131.38478 | 10035 ft | 318 kts | 107° |
| 2026-05-07 15:22 | 33.78094 | 131.41092 | 10606 ft | 327 kts | 107° |
| 2026-05-07 15:22 | 33.77520 | 131.43776 | 11184 ft | 336 kts | 107° |
| 2026-05-07 15:23 | 33.76929 | 131.46541 | 11661 ft | 349 kts | 107° |
| 2026-05-07 15:23 | 33.76314 | 131.49417 | 12146 ft | 361 kts | 107° |
| 2026-05-07 15:23 | 33.75679 | 131.52389 | 12640 ft | 372 kts | 107° |
| 2026-05-07 15:23 | 33.75036 | 131.55396 | 13126 ft | 382 kts | 107° |
| 2026-05-07 15:24 | 33.74356 | 131.58569 | 13647 ft | 392 kts | 108° |
| 2026-05-07 15:24 | 33.73681 | 131.61719 | 14206 ft | 397 kts | 107° |
| 2026-05-07 15:24 | 33.73074 | 131.64977 | 14766 ft | 403 kts | 102° |
| 2026-05-07 15:24 | 33.72917 | 131.68360 | 15326 ft | 410 kts | 90° |
| 2026-05-07 15:25 | 33.73290 | 131.71779 | 15900 ft | 417 kts | 79° |
| 2026-05-07 15:25 | 33.74000 | 131.75188 | 16511 ft | 422 kts | 77° |
| 2026-05-07 15:25 | 33.74760 | 131.78611 | 17115 ft | 427 kts | 77° |
| 2026-05-07 15:25 | 33.75527 | 131.82029 | 17713 ft | 430 kts | 77° |
| 2026-05-07 15:26 | 33.76314 | 131.85563 | 18333 ft | 434 kts | 77° |
| 2026-05-07 15:26 | 33.77075 | 131.89025 | 18867 ft | 437 kts | 77° |
| 2026-05-07 15:26 | 33.77843 | 131.92564 | 19414 ft | 440 kts | 77° |
| 2026-05-07 15:26 | 33.78610 | 131.96131 | 19965 ft | 442 kts | 77° |
| 2026-05-07 15:27 | 33.79381 | 131.99749 | 20435 ft | 449 kts | 77° |
| 2026-05-07 15:27 | 33.80156 | 132.03396 | 20901 ft | 454 kts | 77° |
| 2026-05-07 15:27 | 33.80939 | 132.07091 | 21416 ft | 458 kts | 77° |
| 2026-05-07 15:27 | 33.81729 | 132.10824 | 21966 ft | 460 kts | 77° |
| 2026-05-07 15:28 | 33.82521 | 132.14568 | 22431 ft | 464 kts | 77° |
| 2026-05-07 15:28 | 33.83308 | 132.18298 | 22898 ft | 468 kts | 77° |
| 2026-05-07 15:28 | 33.84111 | 132.22109 | 23370 ft | 471 kts | 77° |
| 2026-05-07 15:28 | 33.84917 | 132.25941 | 23785 ft | 474 kts | 77° |
| 2026-05-07 15:29 | 33.85728 | 132.29798 | 24180 ft | 477 kts | 77° |
| 2026-05-07 15:29 | 33.86538 | 132.33660 | 24596 ft | 479 kts | 76° |
| 2026-05-07 15:29 | 33.87356 | 132.37569 | 24980 ft | 481 kts | 76° |
| 2026-05-07 15:29 | 33.88173 | 132.41478 | 25356 ft | 484 kts | 77° |
| 2026-05-07 15:30 | 33.88993 | 132.45408 | 25727 ft | 486 kts | 77° |
| 2026-05-07 15:30 | 33.89803 | 132.49297 | 26101 ft | 489 kts | 77° |
| 2026-05-07 15:30 | 33.90633 | 132.53291 | 26467 ft | 491 kts | 77° |
| 2026-05-07 15:30 | 33.91464 | 132.57293 | 26834 ft | 493 kts | 77° |
| 2026-05-07 15:31 | 33.92295 | 132.61303 | 27188 ft | 495 kts | 77° |
| 2026-05-07 15:31 | 33.93128 | 132.65328 | 27534 ft | 498 kts | 77° |
| 2026-05-07 15:31 | 33.93964 | 132.69378 | 27870 ft | 500 kts | 77° |
| 2026-05-07 15:31 | 33.94805 | 132.73459 | 28216 ft | 502 kts | 77° |
| 2026-05-07 15:32 | 33.95647 | 132.77553 | 28544 ft | 504 kts | 77° |
| 2026-05-07 15:32 | 33.96490 | 132.81657 | 28869 ft | 506 kts | 77° |
| 2026-05-07 15:32 | 33.97332 | 132.85767 | 29185 ft | 508 kts | 77° |
| 2026-05-07 15:32 | 33.98183 | 132.89924 | 29512 ft | 510 kts | 77° |
| 2026-05-07 15:33 | 33.99022 | 132.94035 | 29817 ft | 512 kts | 77° |
| 2026-05-07 15:33 | 33.99873 | 132.98208 | 30095 ft | 514 kts | 77° |
| 2026-05-07 15:33 | 34.00725 | 133.02393 | 30322 ft | 516 kts | 77° |
| 2026-05-07 15:33 | 34.01581 | 133.06609 | 30575 ft | 518 kts | 77° |
| 2026-05-07 15:34 | 34.02431 | 133.10804 | 30915 ft | 517 kts | 76° |
| 2026-05-07 15:34 | 34.03285 | 133.15024 | 31312 ft | 514 kts | 76° |
| 2026-05-07 15:34 | 34.04130 | 133.19208 | 31699 ft | 513 kts | 76° |
| 2026-05-07 15:34 | 34.04971 | 133.23380 | 32035 ft | 512 kts | 76° |
| 2026-05-07 15:35 | 34.05809 | 133.27544 | 32373 ft | 512 kts | 76° |
| 2026-05-07 15:35 | 34.06637 | 133.31669 | 32708 ft | 511 kts | 76° |
| 2026-05-07 15:35 | 34.07472 | 133.35835 | 33060 ft | 511 kts | 76° |
| 2026-05-07 15:35 | 34.08304 | 133.39992 | 33418 ft | 510 kts | 76° |
| 2026-05-07 15:36 | 34.09133 | 133.44144 | 33759 ft | 509 kts | 76° |
| 2026-05-07 15:36 | 34.09960 | 133.48292 | 34072 ft | 508 kts | 76° |
| 2026-05-07 15:36 | 34.10807 | 133.52428 | 34348 ft | 508 kts | 75° |
| 2026-05-07 15:36 | 34.11683 | 133.56556 | 34622 ft | 507 kts | 75° |
| 2026-05-07 15:37 | 34.12567 | 133.60668 | 34911 ft | 507 kts | 75° |
| 2026-05-07 15:37 | 34.13441 | 133.64737 | 35181 ft | 506 kts | 75° |
| 2026-05-07 15:37 | 34.14315 | 133.68843 | 35445 ft | 506 kts | 75° |
| 2026-05-07 15:37 | 34.15186 | 133.72963 | 35723 ft | 506 kts | 75° |
| 2026-05-07 15:38 | 34.16051 | 133.77075 | 35998 ft | 505 kts | 75° |
| 2026-05-07 15:38 | 34.16915 | 133.81187 | 36243 ft | 505 kts | 75° |
| 2026-05-07 15:38 | 34.17767 | 133.85301 | 36480 ft | 506 kts | 75° |
| 2026-05-07 15:38 | 34.18603 | 133.89424 | 36734 ft | 505 kts | 75° |
| 2026-05-07 15:39 | 34.19433 | 133.93544 | 36957 ft | 506 kts | 75° |
| 2026-05-07 15:39 | 34.20270 | 133.97694 | 36933 ft | 509 kts | 75° |
| 2026-05-07 15:39 | 34.21939 | 134.05953 | 36937 ft | 510 kts | 75° |
| 2026-05-07 15:40 | 34.23607 | 134.14213 | 36928 ft | 504 kts | 75° |
| 2026-05-07 15:40 | 34.25262 | 134.22430 | 36931 ft | 502 kts | 75° |
| 2026-05-07 15:41 | 34.26906 | 134.30628 | 36921 ft | 501 kts | 75° |
| 2026-05-07 15:41 | 34.28526 | 134.38739 | 36917 ft | 500 kts | 75° |
| 2026-05-07 15:42 | 34.30152 | 134.46906 | 36912 ft | 500 kts | 75° |
| 2026-05-07 15:42 | 34.31775 | 134.55096 | 36909 ft | 501 kts | 76° |
| 2026-05-07 15:43 | 34.33396 | 134.63301 | 36914 ft | 506 kts | 76° |
| 2026-05-07 15:43 | 34.35014 | 134.71527 | 36896 ft | 505 kts | 76° |
| 2026-05-07 15:44 | 34.36633 | 134.79785 | 36897 ft | 503 kts | 76° |
| 2026-05-07 15:44 | 34.38241 | 134.88022 | 36895 ft | 503 kts | 76° |
| 2026-05-07 15:45 | 34.39662 | 134.96322 | 36909 ft | 504 kts | 78° |
| 2026-05-07 15:45 | 34.40961 | 135.04605 | 36907 ft | 505 kts | 79° |
| 2026-05-07 15:46 | 34.42956 | 135.17119 | 36907 ft | 504 kts | 78° |
| 2026-05-07 15:47 | 34.44298 | 135.25429 | 36908 ft | 502 kts | 78° |
| 2026-05-07 15:47 | 34.45626 | 135.33678 | 36918 ft | 502 kts | 78° |
| 2026-05-07 15:48 | 34.46956 | 135.41994 | 36911 ft | 503 kts | 79° |
| 2026-05-07 15:48 | 34.48283 | 135.50337 | 36905 ft | 504 kts | 79° |
| 2026-05-07 15:49 | 34.49605 | 135.58686 | 36902 ft | 503 kts | 79° |
| 2026-05-07 15:49 | 34.50907 | 135.66938 | 36902 ft | 501 kts | 79° |
| 2026-05-07 15:50 | 34.52202 | 135.75220 | 36901 ft | 501 kts | 79° |
| 2026-05-07 15:50 | 34.53494 | 135.83537 | 36909 ft | 503 kts | 79° |
| 2026-05-07 15:51 | 34.54783 | 135.91873 | 36899 ft | 503 kts | 79° |
| 2026-05-07 15:51 | 34.56064 | 136.00194 | 36896 ft | 501 kts | 80° |
| 2026-05-07 15:52 | 34.57329 | 136.08450 | 36900 ft | 500 kts | 80° |
| 2026-05-07 15:52 | 34.58596 | 136.16752 | 36901 ft | 500 kts | 80° |
| 2026-05-07 15:53 | 34.59867 | 136.25069 | 36905 ft | 502 kts | 80° |
| 2026-05-07 15:53 | 34.61144 | 136.33401 | 36899 ft | 503 kts | 80° |
| 2026-05-07 15:54 | 34.62404 | 136.41662 | 36889 ft | 500 kts | 80° |
| 2026-05-07 15:54 | 34.63633 | 136.49765 | 36886 ft | 499 kts | 81° |
| 2026-05-07 15:55 | 34.64883 | 136.58054 | 36902 ft | 500 kts | 81° |
| 2026-05-07 15:55 | 34.66131 | 136.66369 | 36896 ft | 500 kts | 81° |
| 2026-05-07 15:56 | 34.67362 | 136.74610 | 36904 ft | 499 kts | 81° |
| 2026-05-07 15:56 | 34.68593 | 136.82892 | 36903 ft | 499 kts | 81° |
| 2026-05-07 15:57 | 34.69822 | 136.91194 | 36901 ft | 498 kts | 81° |
| 2026-05-07 15:57 | 34.70671 | 136.99513 | 36900 ft | 496 kts | 90° |
| 2026-05-07 15:58 | 34.70747 | 137.07876 | 36623 ft | 500 kts | 92° |
| 2026-05-07 15:58 | 34.70753 | 137.12090 | 36437 ft | 498 kts | 92° |
| 2026-05-07 15:58 | 34.70767 | 137.16302 | 36240 ft | 498 kts | 92° |
| 2026-05-07 15:58 | 34.70793 | 137.20516 | 35884 ft | 501 kts | 92° |
| 2026-05-07 15:59 | 34.70828 | 137.24746 | 35577 ft | 500 kts | 91° |
| 2026-05-07 15:59 | 34.70869 | 137.28971 | 35262 ft | 500 kts | 91° |
| 2026-05-07 15:59 | 34.70913 | 137.33184 | 34958 ft | 500 kts | 91° |
| 2026-05-07 15:59 | 34.70955 | 137.37372 | 34660 ft | 502 kts | 91° |
| 2026-05-07 16:00 | 34.70996 | 137.41619 | 34360 ft | 503 kts | 91° |
| 2026-05-07 16:00 | 34.71035 | 137.45872 | 34073 ft | 504 kts | 91° |
| 2026-05-07 16:00 | 34.71072 | 137.50127 | 33725 ft | 504 kts | 91° |
| 2026-05-07 16:00 | 34.71107 | 137.54394 | 33377 ft | 504 kts | 91° |
| 2026-05-07 16:01 | 34.71140 | 137.58649 | 33050 ft | 505 kts | 91° |
| 2026-05-07 16:01 | 34.71172 | 137.62919 | 32720 ft | 505 kts | 91° |
| 2026-05-07 16:01 | 34.71202 | 137.67186 | 32396 ft | 505 kts | 91° |
| 2026-05-07 16:01 | 34.71231 | 137.71452 | 32076 ft | 505 kts | 91° |
| 2026-05-07 16:02 | 34.71259 | 137.75720 | 31757 ft | 505 kts | 91° |
| 2026-05-07 16:02 | 34.71284 | 137.79924 | 31450 ft | 505 kts | 91° |
| 2026-05-07 16:02 | 34.71309 | 137.84203 | 31144 ft | 505 kts | 91° |
| 2026-05-07 16:02 | 34.71332 | 137.88469 | 30843 ft | 506 kts | 91° |
| 2026-05-07 16:03 | 34.71353 | 137.92673 | 30542 ft | 507 kts | 91° |
| 2026-05-07 16:03 | 34.71374 | 137.97013 | 30242 ft | 507 kts | 91° |
| 2026-05-07 16:03 | 34.71393 | 138.01322 | 29941 ft | 512 kts | 91° |
| 2026-05-07 16:03 | 34.71411 | 138.05678 | 29594 ft | 515 kts | 91° |
| 2026-05-07 16:04 | 34.71432 | 138.09981 | 29248 ft | 515 kts | 91° |
| 2026-05-07 16:04 | 34.71455 | 138.14321 | 28915 ft | 515 kts | 91° |
| 2026-05-07 16:04 | 34.71476 | 138.18677 | 28564 ft | 516 kts | 91° |
| 2026-05-07 16:04 | 34.71496 | 138.23046 | 28228 ft | 516 kts | 91° |
| 2026-05-07 16:05 | 34.71514 | 138.27395 | 27896 ft | 517 kts | 91° |
| 2026-05-07 16:05 | 34.71530 | 138.31776 | 27561 ft | 516 kts | 91° |
| 2026-05-07 16:05 | 34.71545 | 138.36136 | 27230 ft | 516 kts | 91° |
| 2026-05-07 16:05 | 34.71557 | 138.40444 | 26907 ft | 516 kts | 91° |
| 2026-05-07 16:06 | 34.71568 | 138.44858 | 26583 ft | 515 kts | 91° |
| 2026-05-07 16:06 | 34.71577 | 138.49158 | 26268 ft | 515 kts | 91° |
| 2026-05-07 16:06 | 34.71585 | 138.53491 | 25947 ft | 515 kts | 91° |
| 2026-05-07 16:06 | 34.71591 | 138.57851 | 25646 ft | 514 kts | 91° |
| 2026-05-07 16:07 | 34.71596 | 138.62182 | 25339 ft | 514 kts | 91° |
| 2026-05-07 16:07 | 34.71600 | 138.66516 | 25031 ft | 512 kts | 91° |
| 2026-05-07 16:07 | 34.71601 | 138.70789 | 24734 ft | 511 kts | 91° |
| 2026-05-07 16:07 | 34.71602 | 138.75159 | 24440 ft | 508 kts | 91° |
| 2026-05-07 16:08 | 34.71602 | 138.79436 | 24137 ft | 505 kts | 91° |
| 2026-05-07 16:08 | 34.71594 | 138.83643 | 23856 ft | 502 kts | 92° |
| 2026-05-07 16:08 | 34.71573 | 138.87855 | 23559 ft | 499 kts | 92° |
| 2026-05-07 16:08 | 34.71549 | 138.92072 | 23239 ft | 496 kts | 92° |
| 2026-05-07 16:09 | 34.71524 | 138.96251 | 22894 ft | 494 kts | 92° |
| 2026-05-07 16:09 | 34.71497 | 139.00424 | 22548 ft | 490 kts | 92° |
| 2026-05-07 16:09 | 34.71473 | 139.04526 | 22221 ft | 485 kts | 92° |
| 2026-05-07 16:09 | 34.71449 | 139.08629 | 21888 ft | 484 kts | 92° |
| 2026-05-07 16:10 | 34.71423 | 139.12691 | 21449 ft | 477 kts | 92° |
| 2026-05-07 16:10 | 34.71397 | 139.16674 | 21001 ft | 466 kts | 92° |
| 2026-05-07 16:10 | 34.71371 | 139.20564 | 20556 ft | 455 kts | 92° |
| 2026-05-07 16:10 | 34.71343 | 139.24315 | 20130 ft | 445 kts | 92° |
| 2026-05-07 16:11 | 34.71314 | 139.28050 | 19699 ft | 436 kts | 92° |
| 2026-05-07 16:11 | 34.71284 | 139.31713 | 19279 ft | 430 kts | 92° |
| 2026-05-07 16:11 | 34.71254 | 139.35318 | 18864 ft | 423 kts | 92° |
| 2026-05-07 16:11 | 34.71231 | 139.38887 | 18468 ft | 422 kts | 90° |
| 2026-05-07 16:12 | 34.71734 | 139.42372 | 18042 ft | 423 kts | 70° |
| 2026-05-07 16:12 | 34.73116 | 139.45517 | 17733 ft | 421 kts | 53° |
| 2026-05-07 16:12 | 34.75148 | 139.48024 | 17418 ft | 419 kts | 37° |
| 2026-05-07 16:12 | 34.77431 | 139.50153 | 17092 ft | 418 kts | 35° |
| 2026-05-07 16:13 | 34.79765 | 139.52251 | 16775 ft | 417 kts | 34° |
| 2026-05-07 16:13 | 34.82095 | 139.54332 | 16444 ft | 416 kts | 34° |
| 2026-05-07 16:13 | 34.84413 | 139.56414 | 16119 ft | 413 kts | 35° |
| 2026-05-07 16:13 | 34.86726 | 139.58511 | 15802 ft | 411 kts | 35° |
| 2026-05-07 16:14 | 34.88997 | 139.60586 | 15490 ft | 410 kts | 35° |
| 2026-05-07 16:14 | 34.91273 | 139.62677 | 15174 ft | 408 kts | 35° |
| 2026-05-07 16:14 | 34.93511 | 139.64741 | 14873 ft | 407 kts | 35° |
| 2026-05-07 16:14 | 34.95766 | 139.66825 | 14560 ft | 406 kts | 35° |
| 2026-05-07 16:15 | 34.98014 | 139.68904 | 14265 ft | 405 kts | 35° |
| 2026-05-07 16:15 | 35.00246 | 139.70971 | 13959 ft | 401 kts | 35° |
| 2026-05-07 16:15 | 35.02467 | 139.73029 | 13661 ft | 400 kts | 35° |
| 2026-05-07 16:15 | 35.04672 | 139.75073 | 13328 ft | 399 kts | 35° |
| 2026-05-07 16:16 | 35.06873 | 139.77115 | 13059 ft | 396 kts | 35° |
| 2026-05-07 16:16 | 35.09067 | 139.79152 | 12807 ft | 396 kts | 35° |
| 2026-05-07 16:16 | 35.11231 | 139.81161 | 12558 ft | 395 kts | 35° |
| 2026-05-07 16:16 | 35.13404 | 139.83181 | 12305 ft | 393 kts | 35° |
| 2026-05-07 16:17 | 35.15580 | 139.85205 | 12062 ft | 392 kts | 35° |
| 2026-05-07 16:17 | 35.20018 | 139.89337 | 11508 ft | 388 kts | 35° |
| 2026-05-07 16:17 | 35.22166 | 139.91340 | 11018 ft | 386 kts | 35° |
| 2026-05-07 16:18 | 35.24272 | 139.93305 | 10795 ft | 376 kts | 35° |
| 2026-05-07 16:18 | 35.25424 | 139.94381 | 10683 ft | 369 kts | 35° |
| 2026-05-07 16:18 | 35.27345 | 139.96177 | 10530 ft | 359 kts | 35° |
| 2026-05-07 16:18 | 35.29275 | 139.97981 | 10372 ft | 349 kts | 35° |
| 2026-05-07 16:19 | 35.31194 | 139.99776 | 10239 ft | 338 kts | 35° |
| 2026-05-07 16:19 | 35.33018 | 140.01482 | 10080 ft | 330 kts | 35° |
| 2026-05-07 16:19 | 35.34810 | 140.03159 | 9980 ft | 320 kts | 35° |
| 2026-05-07 16:19 | 35.36570 | 140.04806 | 9601 ft | 320 kts | 35° |
| 2026-05-07 16:20 | 35.38320 | 140.06445 | 9254 ft | 315 kts | 35° |
| 2026-05-07 16:20 | 35.40045 | 140.08061 | 8916 ft | 310 kts | 35° |
| 2026-05-07 16:20 | 35.41748 | 140.09657 | 8604 ft | 307 kts | 35° |
| 2026-05-07 16:20 | 35.43442 | 140.11247 | 8302 ft | 306 kts | 35° |
| 2026-05-07 16:21 | 35.45129 | 140.12831 | 7997 ft | 305 kts | 35° |
| 2026-05-07 16:21 | 35.46790 | 140.14390 | 7723 ft | 303 kts | 35° |
| 2026-05-07 16:21 | 35.48457 | 140.15957 | 7420 ft | 302 kts | 35° |
| 2026-05-07 16:21 | 35.50114 | 140.17516 | 7236 ft | 296 kts | 35° |
| 2026-05-07 16:22 | 35.51741 | 140.19017 | 7092 ft | 288 kts | 29° |
| 2026-05-07 16:22 | 35.53561 | 140.19825 | 6984 ft | 271 kts | 2° |
| 2026-05-07 16:22 | 35.55393 | 140.19695 | 6710 ft | 262 kts | 340° |
| 2026-05-07 16:22 | 35.57137 | 140.19110 | 6476 ft | 258 kts | 336° |
| 2026-05-07 16:23 | 35.58644 | 140.18052 | 6210 ft | 245 kts | 309° |
| 2026-05-07 16:23 | 35.59632 | 140.16474 | 5990 ft | 233 kts | 296° |
| 2026-05-07 16:23 | 35.60390 | 140.14837 | 5789 ft | 221 kts | 289° |
| 2026-05-07 16:23 | 35.60625 | 140.13091 | 5585 ft | 201 kts | 265° |
| 2026-05-07 16:24 | 35.60591 | 140.11417 | 5378 ft | 191 kts | 266° |
| 2026-05-07 16:24 | 35.60573 | 140.09827 | 5192 ft | 182 kts | 266° |
| 2026-05-07 16:24 | 35.60560 | 140.08310 | 5030 ft | 173 kts | 266° |
| 2026-05-07 16:24 | 35.60546 | 140.06857 | 4813 ft | 168 kts | 266° |
| 2026-05-07 16:25 | 35.60536 | 140.05455 | 4589 ft | 164 kts | 266° |
| 2026-05-07 16:25 | 35.60526 | 140.04063 | 4368 ft | 159 kts | 266° |
| 2026-05-07 16:25 | 35.60517 | 140.02741 | 4184 ft | 158 kts | 266° |
| 2026-05-07 16:25 | 35.60508 | 140.01388 | 3976 ft | 159 kts | 266° |
| 2026-05-07 16:26 | 35.60499 | 140.00029 | 3778 ft | 159 kts | 266° |
| 2026-05-07 16:26 | 35.60490 | 139.98678 | 3567 ft | 160 kts | 266° |
| 2026-05-07 16:26 | 35.60481 | 139.97295 | 3356 ft | 161 kts | 267° |
| 2026-05-07 16:26 | 35.60475 | 139.96398 | 3219 ft | 161 kts | 267° |
| 2026-05-07 16:27 | 35.60464 | 139.94549 | 2929 ft | 161 kts | 267° |
| 2026-05-07 16:27 | 35.60456 | 139.93196 | 2697 ft | 159 kts | 267° |
| 2026-05-07 16:27 | 35.60449 | 139.91857 | 2485 ft | 155 kts | 267° |
| 2026-05-07 16:27 | 35.60440 | 139.90552 | 2296 ft | 152 kts | 267° |
| 2026-05-07 16:28 | 35.60432 | 139.89268 | 2083 ft | 150 kts | 266° |
| 2026-05-07 16:28 | 35.60424 | 139.87981 | 1910 ft | 151 kts | 266° |
| 2026-05-07 16:28 | 35.60417 | 139.86750 | 1753 ft | 140 kts | 266° |
| 2026-05-07 16:28 | 35.60408 | 139.85552 | 1546 ft | 141 kts | 266° |
| 2026-05-07 16:29 | 35.60400 | 139.84368 | 1336 ft | 138 kts | 266° |
| 2026-05-07 16:29 | 35.60400 | 139.83217 | 1214 ft | 134 kts | 268° |
| 2026-05-07 16:29 | 35.60411 | 139.82069 | 1009 ft | 136 kts | 267° |
| 2026-05-07 16:29 | 35.60131 | 139.80992 | 857 ft | 136 kts | 235° |
| 2026-05-07 16:30 | 35.59511 | 139.80115 | 738 ft | 137 kts | 221° |
| 2026-05-07 16:30 | 35.58747 | 139.79410 | 587 ft | 140 kts | 213° |
| 2026-05-07 16:30 | 35.57941 | 139.78724 | 400 ft | 141 kts | 213° |
| 2026-05-07 16:30 | 35.57136 | 139.78041 | 199 ft | 140 kts | 212° |
| 2026-05-07 16:31 | 35.56350 | 139.77362 | 41 ft | 131 kts | 210° |
| 2026-05-07 16:31 | 35.55760 | 139.76864 | 28 ft | 72 kts | 214° |
| 2026-05-07 16:31 | 35.55463 | 139.76609 | 27 ft | 41 kts | 214° |
| 2026-05-07 16:31 | 35.55279 | 139.76485 | 27 ft | 23 kts | 199° |
| 2026-05-07 16:32 | 35.55177 | 139.76461 | 28 ft | 6 kts | 189° |
| 2026-05-07 16:32 | 35.55138 | 139.76453 | 28 ft | 6 kts | 188° |
| 2026-05-07 16:32 | 35.55101 | 139.76457 | 29 ft | 5 kts | 155° |
| 2026-05-07 16:32 | 35.55074 | 139.76488 | 29 ft | 5 kts | 124° |
| 2026-05-07 16:33 | 35.55070 | 139.76536 | 29 ft | 7 kts | 72° |
| 2026-05-07 16:33 | 35.55108 | 139.76620 | 29 ft | 16 kts | 60° |
| 2026-05-07 16:33 | 35.55175 | 139.76762 | 29 ft | 21 kts | 60° |
| 2026-05-07 16:33 | 35.55247 | 139.76915 | 29 ft | 21 kts | 59° |
| 2026-05-07 16:34 | 35.55308 | 139.77041 | 29 ft | 14 kts | 59° |
| 2026-05-07 16:34 | 35.55326 | 139.77099 | 29 ft | 6 kts | 93° |
| 2026-05-07 16:34 | 35.55303 | 139.77142 | 28 ft | 7 kts | 143° |
| 2026-05-07 16:34 | 35.55254 | 139.77180 | 28 ft | 10 kts | 149° |
| 2026-05-07 16:35 | 35.55182 | 139.77231 | 28 ft | 11 kts | 150° |
| 2026-05-07 16:35 | 35.55145 | 139.77288 | 28 ft | 9 kts | 96° |
| 2026-05-07 16:35 | 35.55170 | 139.77364 | 28 ft | 13 kts | 59° |
| 2026-05-07 16:35 | 35.55244 | 139.77523 | 24 ft | 23 kts | 60° |
| 2026-05-07 16:36 | 35.55303 | 139.77648 | 28 ft | 11 kts | 59° |
| 2026-05-07 16:36 | 35.55335 | 139.77722 | 29 ft | 9 kts | 80° |
| 2026-05-07 16:36 | 35.55306 | 139.77779 | 29 ft | 8 kts | 147° |
| 2026-05-07 16:36 | 35.55258 | 139.77815 | 29 ft | 8 kts | 150° |
| 2026-05-07 16:37 | 35.55210 | 139.77848 | 29 ft | 8 kts | 149° |
| 2026-05-07 16:37 | 35.55179 | 139.77870 | 29 ft | 8 kts | 150° |
| 2026-05-07 16:37 | 35.55120 | 139.77913 | 29 ft | 7 kts | 150° |
| 2026-05-07 16:37 | 35.55077 | 139.77943 | 29 ft | 7 kts | 150° |
| 2026-05-07 16:38 | 35.55035 | 139.77973 | 29 ft | 7 kts | 149° |
| 2026-05-07 16:38 | 35.54994 | 139.78002 | 29 ft | 7 kts | 149° |
| 2026-05-07 16:38 | 35.54970 | 139.78044 | 29 ft | 7 kts | 81° |
| 2026-05-07 16:38 | 35.55005 | 139.78079 | 29 ft | 7 kts | 26° |
| 2026-05-07 16:39 | 35.55045 | 139.78106 | 29 ft | 7 kts | 27° |
| 2026-05-07 16:39 | 35.55074 | 139.78123 | 29 ft | 3 kts | 27° |
| 2026-05-07 16:39 | 35.55078 | 139.78126 | 29 ft | 0 kts | 27° |